Time;durP1;ratioP1;P1;durP2;ratioP2;P2;SDS_P1;SDS_P2;PMS_P1;PMS_P2;Temp;Humidity;BMP_temperature;BMP_pressure;BME280_temperature;BME280_humidity;BME280_pressure;Samples;Min_cycle;Max_cycle;Signal;HPM_P1;HPM_P2
2022/10/09 00:02:22;;;;;;;;;9.00;7.00;;;;;12.10;55.94;102139.59;5137759;27;45454;-80
2022/10/09 00:04:48;;;;;;;;;8.00;5.00;;;;;12.06;55.84;102133.53;5137741;27;45402;-80
2022/10/09 00:07:13;;;;;;;;;6.00;6.00;;;;;12.05;55.60;102139.63;5137533;27;45377;-80
2022/10/09 00:09:38;;;;;;;;;6.25;5.00;;;;;12.05;56.08;102136.16;5137527;27;49449;-80
2022/10/09 00:12:04;;;;;;;;;8.00;6.00;;;;;12.05;56.05;102133.56;5136960;27;63510;-80
2022/10/09 00:14:29;;;;;;;;;6.50;6.25;;;;;12.02;55.68;102137.06;5118094;27;58569;-80
2022/10/09 00:16:54;;;;;;;;;5.75;3.00;;;;;12.03;55.78;102130.97;5136391;27;75645;-80
2022/10/09 00:19:20;;;;;;;;;10.00;7.00;;;;;12.05;55.76;102133.56;5136324;27;70118;-80
2022/10/09 00:21:45;;;;;;;;;8.00;5.00;;;;;12.04;55.84;102131.84;5137227;27;55515;-80
2022/10/09 00:24:10;;;;;;;;;3.00;3.00;;;;;11.98;56.00;102128.41;5137544;27;45288;-80
2022/10/09 00:26:36;;;;;;;;;6.50;6.00;;;;;11.94;56.09;102128.47;5136735;27;60335;-80
2022/10/09 00:29:02;;;;;;;;;9.00;4.00;;;;;11.89;56.38;102133.72;5118579;27;45403;-80
2022/10/09 00:31:27;;;;;;;;;7.00;4.00;;;;;11.82;56.56;102129.44;5119004;27;45415;-80
2022/10/09 00:33:53;;;;;;;;;4.50;3.75;;;;;11.81;56.56;102125.09;5137147;27;45498;-79
2022/10/09 00:36:20;;;;;;;;;4.25;2.75;;;;;11.78;56.83;102125.16;5137193;27;45301;-80
2022/10/09 00:38:46;;;;;;;;;4.25;4.25;;;;;11.73;56.81;102126.94;5137251;27;45398;-80
2022/10/09 00:41:15;;;;;;;;;7.50;6.75;;;;;11.68;56.74;102127.00;5137374;27;45232;-80
2022/10/09 00:43:46;;;;;;;;;6.00;5.75;;;;;11.63;57.07;102124.44;5118574;27;45414;-80
2022/10/09 00:46:24;;;;;;;;;5.50;4.25;;;;;11.61;56.96;102123.59;5122203;27;45410;-80
2022/10/09 00:49:03;;;;;;;;;7.75;6.50;;;;;11.61;56.83;102117.53;5122412;27;45406;-80
2022/10/09 00:51:30;;;;;;;;;7.00;5.00;;;;;11.56;57.25;102120.16;5122301;27;45344;-79
2022/10/09 00:53:56;;;;;;;;;7.50;5.00;;;;;11.51;57.04;102128.94;5122345;27;45458;-80
2022/10/09 00:56:21;;;;;;;;;7.50;5.00;;;;;11.42;57.21;102129.88;5122106;27;47100;-80
2022/10/09 00:58:51;;;;;;;;;5.50;4.75;;;;;11.39;57.19;102127.31;5121805;27;45281;-80
2022/10/09 01:01:17;;;;;;;;;6.00;4.25;;;;;11.38;57.70;102115.16;5122366;27;45375;-80
2022/10/09 01:03:42;;;;;;;;;6.75;5.00;;;;;11.34;57.89;102110.84;5122102;27;45441;-80
2022/10/09 01:06:16;;;;;;;;;7.50;6.25;;;;;11.28;57.72;102106.56;5139682;27;66344;-80
2022/10/09 01:08:44;;;;;;;;;8.75;6.00;;;;;11.24;57.63;102108.34;5121849;27;45929;-80
2022/10/09 01:11:15;;;;;;;;;7.25;6.00;;;;;11.22;57.56;102107.50;5140307;27;45333;-79
2022/10/09 01:13:47;;;;;;;;;6.00;5.50;;;;;11.22;57.59;102098.81;5140347;27;45474;-80
2022/10/09 01:16:25;;;;;;;;;8.00;5.25;;;;;11.20;57.50;102096.22;5121769;27;47310;-80
2022/10/09 01:19:00;;;;;;;;;6.75;5.75;;;;;11.16;57.91;102096.25;5121537;27;45398;-80
2022/10/09 01:21:39;;;;;;;;;8.25;5.50;;;;;11.10;58.49;102094.56;5140307;27;45429;-80
2022/10/09 01:24:20;;;;;;;;;6.25;5.00;;;;;11.08;58.42;102096.31;5121801;27;45516;-80
2022/10/09 01:26:53;;;;;;;;;5.00;5.00;;;;;11.08;58.10;102087.66;5139657;27;46612;-80
2022/10/09 01:29:20;;;;;;;;;7.50;6.25;;;;;11.07;58.21;102085.91;5140321;27;45341;-80
2022/10/09 01:31:48;;;;;;;;;6.25;3.50;;;;;11.10;57.69;102076.31;5121832;27;45495;-79
2022/10/09 01:34:15;;;;;;;;;8.25;6.25;;;;;11.09;58.29;102072.00;5121481;27;45396;-79
2022/10/09 01:36:42;;;;;;;;;11.00;5.75;;;;;11.07;58.44;102068.56;5121540;27;46057;-80
2022/10/09 01:39:10;;;;;;;;;5.50;5.00;;;;;11.05;58.83;102062.50;5120650;27;71995;-80
2022/10/09 01:41:35;;;;;;;;;8.50;5.50;;;;;11.01;58.52;102056.47;5121379;27;45440;-79
2022/10/09 01:44:01;;;;;;;;;7.50;5.25;;;;;10.99;58.86;102057.31;5121293;27;46430;-80
2022/10/09 01:46:29;;;;;;;;;5.50;5.00;;;;;10.97;58.55;102052.13;5120097;27;75987;-80
2022/10/09 01:49:19;;;;;;;;;3.75;3.00;;;;;10.94;58.46;102048.69;5121487;27;45961;-80
2022/10/09 01:51:50;;;;;;;;;4.25;3.00;;;;;10.91;58.64;102039.16;5139984;27;45430;-80
2022/10/09 01:54:23;;;;;;;;;6.25;5.00;;;;;10.89;58.62;102037.47;5121320;27;45267;-80
2022/10/09 01:56:50;;;;;;;;;6.75;6.00;;;;;10.89;59.17;102032.25;5119519;27;46173;-80
2022/10/09 01:59:16;;;;;;;;;5.25;3.00;;;;;10.89;58.55;102034.88;5120522;27;67796;-80
2022/10/09 02:01:41;;;;;;;;;5.50;5.50;;;;;10.88;58.89;102036.59;5121297;27;45324;-80
2022/10/09 02:04:10;;;;;;;;;6.50;6.00;;;;;10.90;58.90;102034.84;5121301;27;45476;-80
2022/10/09 02:06:37;;;;;;;;;4.75;4.75;;;;;10.92;59.07;102033.09;5103606;27;46208;-80
2022/10/09 02:09:06;;;;;;;;;7.50;7.00;;;;;10.94;58.65;102038.25;5120784;27;45821;-79
2022/10/09 02:11:32;;;;;;;;;5.00;5.00;;;;;10.95;58.71;102034.78;5121183;27;45265;-80
2022/10/09 02:13:58;;;;;;;;;4.50;3.50;;;;;10.89;59.00;102027.91;5102737;27;72348;-79
2022/10/09 02:16:45;;;;;;;;;10.00;5.00;;;;;10.80;59.29;102021.03;5139124;27;51908;-80
2022/10/09 02:19:26;;;;;;;;;4.00;3.00;;;;;10.76;58.81;102010.66;5138929;27;45417;-79
2022/10/09 02:22:10;;;;;;;;;5.25;2.75;;;;;10.75;58.80;102009.78;5139696;27;45275;-80
2022/10/09 02:24:37;;;;;;;;;5.75;4.50;;;;;10.74;59.59;102008.06;5138954;27;45238;-79
2022/10/09 02:27:02;;;;;;;;;5.25;3.00;;;;;10.74;59.23;102007.22;5120580;27;45343;-80
2022/10/09 02:29:28;;;;;;;;;5.00;5.00;;;;;10.73;59.01;102000.28;5138465;27;69579;-80
2022/10/09 02:31:53;;;;;;;;;7.00;3.50;;;;;10.74;59.44;102004.63;5119777;27;68061;-80
2022/10/09 02:34:19;;;;;;;;;4.50;4.50;;;;;10.71;59.77;102000.28;5139107;27;45500;-79
2022/10/09 02:36:46;;;;;;;;;6.50;5.00;;;;;10.71;59.22;101995.06;5120364;27;47207;-79
2022/10/09 02:39:12;;;;;;;;;4.50;3.00;;;;;10.73;59.00;101992.47;5120208;27;45317;-80
2022/10/09 02:41:37;;;;;;;;;5.00;5.00;;;;;10.73;59.18;101992.47;5120548;27;45321;-80
2022/10/09 02:44:03;;;;;;;;;3.00;3.00;;;;;10.73;59.15;101988.09;5137820;27;70098;-80
2022/10/09 02:46:29;;;;;;;;;6.75;5.00;;;;;10.75;59.13;101985.50;5120251;27;45458;-79
2022/10/09 02:48:54;;;;;;;;;3.00;3.00;;;;;10.75;59.16;101977.69;5138817;27;45500;-79
2022/10/09 02:51:20;;;;;;;;;6.50;3.00;;;;;10.75;59.88;101978.53;5138794;27;48530;-79
2022/10/09 02:53:45;;;;;;;;;6.25;5.25;;;;;10.72;59.86;101978.59;5138436;27;45419;-80
2022/10/09 02:56:10;;;;;;;;;5.75;4.50;;;;;10.71;59.34;101976.00;5119739;27;59148;-79
2022/10/09 02:58:36;;;;;;;;;5.00;4.00;;;;;10.70;59.29;101976.84;5119381;27;68626;-80
2022/10/09 03:01:02;;;;;;;;;8.00;5.00;;;;;10.70;59.07;101969.94;5137801;27;65975;-80
2022/10/09 03:03:27;;;;;;;;;8.00;5.00;;;;;10.65;59.57;101969.94;5120133;27;45406;-79
2022/10/09 03:06:08;;;;;;;;;6.25;4.00;;;;;10.63;59.38;101969.09;5119869;27;46289;-79
2022/10/09 03:08:35;;;;;;;;;4.50;3.00;;;;;10.61;59.13;101970.88;5137779;27;45904;-79
2022/10/09 03:11:00;;;;;;;;;3.50;2.50;;;;;10.59;59.16;101967.41;5102985;27;45380;-80
2022/10/09 03:13:25;;;;;;;;;5.00;3.00;;;;;10.56;59.71;101961.38;5137650;27;66787;-79
2022/10/09 03:15:51;;;;;;;;;5.00;2.50;;;;;10.52;59.99;101963.13;5138093;27;54353;-79
2022/10/09 03:18:17;;;;;;;;;6.00;3.00;;;;;10.46;59.88;101958.84;5137770;27;54289;-79
2022/10/09 03:20:42;;;;;;;;;5.00;3.00;;;;;10.44;59.89;101958.00;5138290;27;45429;-79
2022/10/09 03:23:08;;;;;;;;;3.00;2.00;;;;;10.40;60.11;101958.91;5118848;27;63438;-78
2022/10/09 03:25:33;;;;;;;;;4.50;3.00;;;;;10.37;60.42;101958.94;5118675;27;73830;-79
2022/10/09 03:27:58;;;;;;;;;5.75;3.00;;;;;10.34;60.28;101958.09;5101481;27;73495;-80
2022/10/09 03:30:24;;;;;;;;;4.00;3.00;;;;;10.31;60.09;101948.59;5118849;27;69663;-79
2022/10/09 03:32:49;;;;;;;;;7.00;2.25;;;;;10.32;60.24;101949.44;5137125;27;67757;-80
2022/10/09 03:35:15;;;;;;;;;2.00;2.00;;;;;10.30;60.27;101949.41;5138115;27;46888;-80
2022/10/09 03:37:40;;;;;;;;;4.00;3.00;;;;;10.25;59.93;101951.19;5137858;27;45363;-79
2022/10/09 03:40:05;;;;;;;;;4.50;1.75;;;;;10.22;60.37;101943.41;5137951;27;48538;-79
2022/10/09 03:42:31;;;;;;;;;6.25;3.00;;;;;10.22;60.61;101946.88;5137971;27;45423;-78
2022/10/09 03:44:59;;;;;;;;;2.25;2.25;;;;;10.20;60.56;101948.63;5137860;27;50642;-79
2022/10/09 03:47:25;;;;;;;;;2.25;2.25;;;;;10.18;60.86;101952.13;5137843;27;45755;-80
2022/10/09 03:49:50;;;;;;;;;3.00;2.00;;;;;10.12;60.64;101940.00;5119510;27;45369;-79
2022/10/09 03:52:15;;;;;;;;;3.00;3.00;;;;;10.11;60.26;101945.25;5119265;27;45236;-80
2022/10/09 03:54:41;;;;;;;;;5.00;2.00;;;;;10.11;60.78;101934.84;5118313;27;74161;-79
2022/10/09 03:57:06;;;;;;;;;2.00;2.00;;;;;10.12;60.86;101944.34;5137202;27;59619;-79
2022/10/09 03:59:31;;;;;;;;;3.00;2.50;;;;;10.12;60.58;101934.81;5137090;27;63642;-80
2022/10/09 04:01:56;;;;;;;;;2.50;2.50;;;;;10.10;60.51;101931.34;5137115;27;64629;-79
2022/10/09 04:04:22;;;;;;;;;3.00;2.00;;;;;10.07;60.76;101932.25;5136840;27;70102;-79
2022/10/09 04:06:47;;;;;;;;;3.50;3.00;;;;;10.04;61.00;101936.63;5136962;27;48656;-79
2022/10/09 04:09:12;;;;;;;;;4.00;3.00;;;;;10.02;60.57;101941.81;5137014;27;62024;-79
2022/10/09 04:11:38;;;;;;;;;1.75;1.75;;;;;10.02;60.70;101943.56;5118459;27;62945;-79
2022/10/09 04:14:03;;;;;;;;;2.50;1.75;;;;;10.01;61.04;101936.63;5137416;27;50053;-79
2022/10/09 04:16:28;;;;;;;;;2.25;2.00;;;;;9.99;60.99;101943.59;5137551;27;45316;-79
2022/10/09 04:18:54;;;;;;;;;2.75;1.25;;;;;9.97;60.93;101937.53;5137813;27;45663;-79
2022/10/09 04:21:19;;;;;;;;;3.50;1.00;;;;;9.95;60.80;101940.13;5140060;27;64453;-79
2022/10/09 04:23:44;;;;;;;;;1.00;1.00;;;;;9.97;60.69;101933.19;5105493;27;48487;-79
2022/10/09 04:26:11;;;;;;;;;5.50;1.75;;;;;9.97;60.98;101930.59;5122039;27;63512;-80
2022/10/09 04:28:37;;;;;;;;;5.75;1.00;;;;;9.95;61.20;101936.69;5105462;27;45395;-79
2022/10/09 04:31:03;;;;;;;;;3.00;1.00;;;;;9.93;60.88;101934.09;5141120;27;45364;-79
2022/10/09 04:33:28;;;;;;;;;2.00;2.00;;;;;9.92;61.09;101936.69;5122333;27;46336;-79
2022/10/09 04:35:54;;;;;;;;;2.75;0.25;;;;;9.89;60.90;101940.19;5140788;27;45493;-79
2022/10/09 04:38:20;;;;;;;;;2.00;1.50;;;;;9.85;61.00;101936.75;5122754;27;45541;-79
2022/10/09 04:40:59;;;;;;;;;1.00;1.00;;;;;9.85;61.10;101938.50;5122503;27;45469;-79
2022/10/09 04:43:25;;;;;;;;;2.00;2.00;;;;;9.83;60.90;101930.69;5140715;27;46119;-79
2022/10/09 04:45:50;;;;;;;;;2.25;1.75;;;;;9.82;61.36;101928.09;5122385;27;45463;-79
2022/10/09 04:48:16;;;;;;;;;3.00;1.50;;;;;9.78;61.09;101919.44;5140073;27;68036;-79
2022/10/09 04:50:41;;;;;;;;;1.00;1.00;;;;;9.75;61.67;101921.22;5139671;27;64129;-79
2022/10/09 04:53:08;;;;;;;;;3.00;2.00;;;;;9.73;61.61;101922.97;5140001;27;62301;-79
2022/10/09 04:55:37;;;;;;;;;3.00;2.00;;;;;9.68;61.54;101916.06;5140594;27;45394;-79
2022/10/09 04:58:03;;;;;;;;;9.75;2.00;;;;;9.65;61.61;101913.47;5141015;27;45378;-79
2022/10/09 05:00:28;;;;;;;;;1.25;1.25;;;;;9.62;61.11;101910.03;5139887;27;64959;-79
2022/10/09 05:02:53;;;;;;;;;3.00;2.00;;;;;9.59;61.76;101912.66;5139116;27;74532;-82
2022/10/09 05:05:19;;;;;;;;;2.00;2.00;;;;;9.54;61.58;101909.22;5121326;27;64735;-80
2022/10/09 05:07:44;;;;;;;;;3.25;1.50;;;;;9.49;61.88;101906.66;5140685;27;45365;-79
2022/10/09 05:10:09;;;;;;;;;2.50;2.25;;;;;9.44;61.85;101913.59;5121079;27;65067;-79
2022/10/09 05:12:35;;;;;;;;;4.00;2.50;;;;;9.40;61.79;101909.31;5140080;27;51872;-79
2022/10/09 05:15:00;;;;;;;;;4.00;2.50;;;;;9.36;61.84;101913.66;5121749;27;48728;-79
2022/10/09 05:17:25;;;;;;;;;7.00;3.00;;;;;9.32;62.17;101903.28;5139165;27;62155;-80
2022/10/09 05:19:51;;;;;;;;;6.00;3.00;;;;;9.29;62.62;101907.59;5121686;27;45516;-79
2022/10/09 05:22:16;;;;;;;;;5.00;5.00;;;;;9.27;62.58;101905.91;5121693;27;51898;-80
2022/10/09 05:24:41;;;;;;;;;1.75;1.75;;;;;9.30;62.23;101901.56;5139422;27;71445;-80
2022/10/09 05:27:06;;;;;;;;;7.75;5.00;;;;;9.31;61.83;101899.81;5139959;27;52105;-80
2022/10/09 05:29:32;;;;;;;;;3.00;2.50;;;;;9.28;62.35;101898.06;5140441;27;45357;-80
2022/10/09 05:31:57;;;;;;;;;9.25;5.25;;;;;9.25;62.38;101898.13;5138699;27;71703;-79
2022/10/09 05:34:22;;;;;;;;;6.25;6.00;;;;;9.22;61.92;101892.91;5138956;27;70730;-80
2022/10/09 05:36:48;;;;;;;;;7.50;6.75;;;;;9.19;62.35;101892.06;5140413;27;45378;-79
2022/10/09 05:39:13;;;;;;;;;12.00;8.00;;;;;9.14;62.54;101886.03;5139114;27;71291;-79
2022/10/09 05:41:38;;;;;;;;;9.75;6.00;;;;;9.09;62.68;101881.72;5139222;27;70477;-79
2022/10/09 05:44:04;;;;;;;;;12.25;10.00;;;;;9.06;62.55;101884.34;5139781;27;47050;-79
2022/10/09 05:46:29;;;;;;;;;12.50;7.00;;;;;9.03;62.65;101883.50;5121233;27;45292;-79
2022/10/09 05:48:57;;;;;;;;;6.00;6.00;;;;;9.00;62.52;101884.34;5140051;27;45504;-79
2022/10/09 05:51:27;;;;;;;;;12.75;9.75;;;;;8.99;62.50;101884.34;5139860;27;45258;-79
2022/10/09 05:53:53;;;;;;;;;12.25;10.00;;;;;8.96;62.90;101882.66;5140079;27;45397;-79
2022/10/09 05:56:22;;;;;;;;;14.75;7.25;;;;;8.94;62.69;101876.59;5121321;27;45430;-79
2022/10/09 05:58:58;;;;;;;;;12.00;8.00;;;;;8.93;62.51;101880.06;5139927;27;45326;-79
2022/10/09 06:01:27;;;;;;;;;10.50;8.50;;;;;8.92;62.60;101875.75;5139260;27;47576;-78
2022/10/09 06:03:56;;;;;;;;;9.75;7.25;;;;;8.90;63.03;101878.34;5139753;27;45357;-79
2022/10/09 06:06:25;;;;;;;;;12.00;7.25;;;;;8.87;63.28;101877.50;5121208;27;45793;-79
2022/10/09 06:08:50;;;;;;;;;9.75;7.50;;;;;8.88;63.07;101876.63;5139565;27;45443;-79
2022/10/09 06:11:21;;;;;;;;;10.00;7.00;;;;;8.88;62.98;101879.22;5139698;27;45452;-79
2022/10/09 06:13:47;;;;;;;;;12.50;7.00;;;;;8.86;62.95;101876.63;5139576;27;45238;-79
2022/10/09 06:16:14;;;;;;;;;7.50;4.50;;;;;8.84;63.13;101870.59;5139307;27;45231;-79
2022/10/09 06:18:41;;;;;;;;;5.00;5.00;;;;;8.81;63.19;101870.59;5120846;27;45469;-79
2022/10/09 06:21:06;;;;;;;;;8.00;5.00;;;;;8.80;63.12;101870.59;5139131;27;45367;-79
2022/10/09 06:23:32;;;;;;;;;7.25;5.00;;;;;8.81;63.77;101872.31;5120707;27;45467;-80
2022/10/09 06:26:03;;;;;;;;;7.50;6.75;;;;;8.82;63.83;101869.72;5139291;27;45441;-79
2022/10/09 06:28:30;;;;;;;;;8.25;5.00;;;;;8.82;63.13;101869.72;5139421;27;45355;-80
2022/10/09 06:31:10;;;;;;;;;9.25;7.75;;;;;8.82;63.28;101863.66;5138752;27;46525;-80
2022/10/09 06:33:37;;;;;;;;;4.75;4.25;;;;;8.81;63.82;101862.78;5120491;27;45369;-80
2022/10/09 06:36:22;;;;;;;;;7.75;5.00;;;;;8.85;63.63;101864.50;5139255;27;45399;-79
2022/10/09 06:38:48;;;;;;;;;6.50;5.00;;;;;8.90;63.45;101867.09;5139164;27;45483;-79
2022/10/09 06:41:15;;;;;;;;;3.25;3.25;;;;;8.95;63.83;101859.28;5120366;27;45914;-78
2022/10/09 06:43:41;;;;;;;;;6.00;4.75;;;;;9.00;62.84;101854.94;5119929;27;45765;-79
2022/10/09 06:46:09;;;;;;;;;7.25;5.00;;;;;9.07;63.79;101851.44;5120135;27;45434;-79
2022/10/09 06:48:36;;;;;;;;;6.75;2.00;;;;;9.13;63.11;101856.59;5120499;27;45520;-79
2022/10/09 06:51:02;;;;;;;;;3.25;3.25;;;;;9.19;62.91;101863.50;5138822;27;45325;-81
2022/10/09 06:53:28;;;;;;;;;4.50;3.00;;;;;9.25;62.95;101860.88;5121468;27;45664;-80
2022/10/09 06:55:55;;;;;;;;;8.25;5.00;;;;;9.31;63.26;101855.66;5120485;27;45328;-81
2022/10/09 06:58:20;;;;;;;;;6.75;3.00;;;;;9.38;62.95;101867.72;5120355;27;45535;-80
2022/10/09 07:00:46;;;;;;;;;5.00;3.00;;;;;9.43;63.02;101868.53;5138103;27;52130;-81
2022/10/09 07:03:12;;;;;;;;;5.25;5.00;;;;;9.48;62.50;101868.53;5120257;27;45348;-81
2022/10/09 07:05:37;;;;;;;;;5.50;5.00;;;;;9.51;62.75;101865.94;5138599;27;45427;-81
2022/10/09 07:08:02;;;;;;;;;5.00;2.00;;;;;9.55;62.95;101854.63;5138492;27;48871;-80
2022/10/09 07:10:28;;;;;;;;;9.25;4.00;;;;;9.58;62.68;101858.94;5137631;27;70507;-80
2022/10/09 07:12:53;;;;;;;;;7.25;5.00;;;;;9.61;62.18;101856.31;5137627;27;65205;-80
2022/10/09 07:15:18;;;;;;;;;8.50;5.00;;;;;9.64;62.65;101859.75;5137473;27;63714;-80
2022/10/09 07:17:44;;;;;;;;;3.50;3.50;;;;;9.66;62.78;101855.41;5138196;27;45450;-80
2022/10/09 07:20:09;;;;;;;;;5.50;5.50;;;;;9.69;62.40;101858.00;5137712;27;53564;-80
2022/10/09 07:22:34;;;;;;;;;3.00;3.00;;;;;9.75;62.28;101858.81;5137489;27;66499;-80
2022/10/09 07:25:00;;;;;;;;;5.25;5.25;;;;;9.77;62.33;101854.44;5138675;27;45655;-80
2022/10/09 07:27:25;;;;;;;;;9.00;5.25;;;;;9.82;62.70;101853.53;5138241;27;45521;-80
2022/10/09 07:29:51;;;;;;;;;6.50;5.00;;;;;9.87;62.54;101856.97;5119382;27;46086;-80
2022/10/09 07:32:16;;;;;;;;;7.50;5.75;;;;;9.91;62.41;101850.00;5118725;27;67617;-79
2022/10/09 07:34:42;;;;;;;;;13.50;5.00;;;;;9.94;61.69;101855.19;5137431;27;59332;-80
2022/10/09 07:37:07;;;;;;;;;9.50;8.00;;;;;9.94;62.28;101849.13;5119861;27;45454;-80
2022/10/09 07:39:34;;;;;;;;;7.50;6.50;;;;;9.97;62.02;101849.09;5136996;27;74235;-83
2022/10/09 07:42:00;;;;;;;;;7.50;5.75;;;;;10.01;62.40;101848.19;5138344;27;45782;-83
2022/10/09 07:44:25;;;;;;;;;11.50;5.50;;;;;10.04;62.50;101841.22;5119212;27;45454;-82
2022/10/09 07:46:51;;;;;;;;;8.75;6.00;;;;;10.07;62.38;101842.94;5137088;27;67421;-86
2022/10/09 07:49:16;;;;;;;;;9.00;6.00;;;;;10.11;61.97;101838.59;5119528;27;46153;-85
2022/10/09 07:51:42;;;;;;;;;10.00;5.00;;;;;10.14;62.14;101834.22;5119397;27;45462;-85
2022/10/09 07:54:07;;;;;;;;;7.50;6.50;;;;;10.16;62.53;101831.56;5117743;27;58376;-85
2022/10/09 07:56:39;;;;;;;;;9.00;5.50;;;;;10.19;62.21;101826.34;5138322;27;45390;-84
2022/10/09 07:59:06;;;;;;;;;6.50;5.50;;;;;10.24;61.85;101821.97;5119283;27;45428;-82
2022/10/09 08:01:33;;;;;;;;;9.25;4.50;;;;;10.28;61.82;101816.69;5137797;27;46060;-84
2022/10/09 08:03:59;;;;;;;;;9.75;7.00;;;;;10.32;62.34;101820.16;5137868;27;45389;-81
2022/10/09 08:06:24;;;;;;;;;5.75;5.25;;;;;10.36;61.55;101810.59;5119188;27;45629;-81
2022/10/09 08:08:54;;;;;;;;;6.50;5.50;;;;;10.39;61.41;101819.22;5118987;27;45377;-81
2022/10/09 08:11:21;;;;;;;;;7.00;5.50;;;;;10.43;61.41;101820.06;5137575;27;45906;-81
2022/10/09 08:13:48;;;;;;;;;7.00;5.00;;;;;10.47;61.60;101816.53;5137362;27;45392;-79
2022/10/09 08:16:13;;;;;;;;;7.00;6.00;;;;;10.55;61.95;101819.94;5137736;27;45383;-79
2022/10/09 08:18:39;;;;;;;;;10.00;7.00;;;;;10.62;61.80;101813.78;5137053;27;47310;-80
2022/10/09 08:21:07;;;;;;;;;7.00;5.75;;;;;10.69;61.66;101813.69;5137233;27;45268;-80
2022/10/09 08:23:33;;;;;;;;;10.50;6.50;;;;;10.73;61.13;101813.63;5137490;27;45407;-80
2022/10/09 08:25:58;;;;;;;;;10.75;6.00;;;;;10.79;61.18;101812.69;5137222;27;45323;-80
2022/10/09 08:28:23;;;;;;;;;7.00;7.00;;;;;10.85;60.61;101802.22;5137330;27;46473;-79
2022/10/09 08:30:49;;;;;;;;;6.50;6.25;;;;;10.92;60.93;101810.78;5137324;27;45385;-80
2022/10/09 08:33:19;;;;;;;;;10.25;7.75;;;;;10.96;60.69;101805.53;5136950;27;48878;-80
2022/10/09 08:35:44;;;;;;;;;7.00;7.00;;;;;11.04;60.32;101802.81;5137391;27;45381;-80
2022/10/09 08:38:09;;;;;;;;;7.50;7.00;;;;;11.10;60.79;101799.25;5118739;27;47643;-80
2022/10/09 08:41:01;;;;;;;;;8.00;7.00;;;;;11.19;60.54;101796.53;5136140;27;67507;-80
2022/10/09 08:43:33;;;;;;;;;8.00;7.00;;;;;11.27;60.52;101801.63;5137382;27;45344;-80
2022/10/09 08:46:02;;;;;;;;;9.00;9.00;;;;;11.31;59.99;101792.88;5137323;27;45447;-79
2022/10/09 08:48:28;;;;;;;;;11.00;7.25;;;;;11.36;60.17;101785.84;5118705;27;47744;-80
2022/10/09 08:50:56;;;;;;;;;8.00;6.00;;;;;11.44;60.29;101789.22;5118853;27;45433;-80
2022/10/09 08:53:42;;;;;;;;;8.00;7.25;;;;;11.51;59.58;101792.56;5118856;27;45305;-80
2022/10/09 08:56:12;;;;;;;;;8.75;6.25;;;;;11.57;59.71;101782.03;5118331;27;45405;-80
2022/10/09 08:58:39;;;;;;;;;6.75;6.25;;;;;11.63;59.33;101784.56;5118677;27;46973;-80
2022/10/09 09:01:19;;;;;;;;;8.00;7.00;;;;;11.70;59.10;101780.06;5118553;27;45354;-79
2022/10/09 09:03:59;;;;;;;;;8.00;8.00;;;;;11.77;59.32;101781.69;5137111;27;45381;-80
2022/10/09 09:06:31;;;;;;;;;7.00;7.00;;;;;11.82;59.08;101772.91;5139707;27;45382;-80
2022/10/09 09:09:02;;;;;;;;;11.25;8.00;;;;;11.89;59.16;101772.81;5140391;27;47350;-80
2022/10/09 09:11:34;;;;;;;;;13.00;10.00;;;;;11.94;58.93;101764.03;5140090;27;45282;-80
2022/10/09 09:14:10;;;;;;;;;11.75;11.50;;;;;12.00;58.61;101758.69;5140664;27;45374;-80
2022/10/09 09:16:44;;;;;;;;;14.25;12.00;;;;;12.06;59.03;101760.34;5122064;27;45266;-80
2022/10/09 09:19:39;;;;;;;;;16.00;11.75;;;;;12.15;59.04;101751.47;5121329;27;47122;-80
2022/10/09 09:22:09;;;;;;;;;12.50;11.00;;;;;12.23;58.61;101752.19;5121757;27;45525;-80
2022/10/09 09:24:48;;;;;;;;;16.00;11.00;;;;;12.32;58.10;101751.16;5121527;27;45249;-80
2022/10/09 09:27:19;;;;;;;;;12.75;9.75;;;;;12.39;58.08;101744.91;5121914;27;45318;-80
2022/10/09 09:29:54;;;;;;;;;11.50;9.75;;;;;12.50;58.18;101744.66;5121619;27;46246;-81
2022/10/09 09:32:22;;;;;;;;;11.75;11.00;;;;;12.56;58.16;101739.34;5121613;27;45392;-81
2022/10/09 09:34:48;;;;;;;;;15.00;11.50;;;;;12.65;57.59;101733.91;5121491;27;45373;-81
2022/10/09 09:37:13;;;;;;;;;12.25;9.25;;;;;12.74;57.44;101730.22;5121744;27;45387;-81
2022/10/09 09:39:42;;;;;;;;;11.50;11.00;;;;;12.81;57.68;101731.81;5139639;27;46889;-81
2022/10/09 09:42:08;;;;;;;;;10.00;8.25;;;;;12.89;57.24;101718.56;5121658;27;45903;-81
2022/10/09 09:44:36;;;;;;;;;10.50;9.00;;;;;12.95;56.92;101710.59;5140120;27;45305;-80
2022/10/09 09:47:01;;;;;;;;;11.00;11.00;;;;;13.02;57.42;101711.31;5121417;27;45552;-80
2022/10/09 09:49:28;;;;;;;;;10.50;9.00;;;;;13.09;56.70;101707.66;5120610;27;71178;-81
2022/10/09 09:51:59;;;;;;;;;14.50;11.25;;;;;13.18;57.61;101710.03;5121424;27;45916;-80
2022/10/09 09:54:27;;;;;;;;;11.75;9.75;;;;;13.31;56.69;101706.25;5121025;27;45477;-80
2022/10/09 09:56:57;;;;;;;;;19.00;10.00;;;;;13.42;56.54;101700.75;5121261;27;45379;-80
2022/10/09 09:59:37;;;;;;;;;10.50;9.00;;;;;13.51;56.41;101695.31;5121082;27;45294;-81
2022/10/09 10:02:12;;;;;;;;;12.50;9.25;;;;;13.61;56.41;101695.91;5139606;27;45890;-81
2022/10/09 10:04:47;;;;;;;;;10.50;9.00;;;;;13.72;56.47;101693.03;5139993;27;45481;-81
2022/10/09 10:07:13;;;;;;;;;13.75;9.00;;;;;13.84;55.97;101689.22;5121173;27;45443;-81
2022/10/09 10:09:38;;;;;;;;;11.00;9.00;;;;;13.91;56.01;101683.78;5137918;27;75346;-81
2022/10/09 10:12:05;;;;;;;;;12.50;8.00;;;;;14.00;55.65;101681.78;5139139;27;50770;-81
2022/10/09 10:14:31;;;;;;;;;14.25;9.25;;;;;14.08;55.57;101674.59;5139593;27;45370;-81
2022/10/09 10:16:59;;;;;;;;;9.50;9.50;;;;;14.18;55.17;101678.66;5138405;27;45312;-80
2022/10/09 10:19:29;;;;;;;;;5.25;1.00;;;;;14.30;55.24;101669.56;5138941;27;45695;-80
2022/10/09 10:21:56;;;;;;;;;15.75;9.00;;;;;14.45;54.80;101668.25;5120215;27;45878;-80
2022/10/09 10:24:30;;;;;;;;;10.75;8.75;;;;;14.55;54.63;101655.75;5139479;27;45402;-81
2022/10/09 10:27:02;;;;;;;;;15.50;9.75;;;;;14.66;54.69;101658.94;5120714;27;45511;-81
2022/10/09 10:29:35;;;;;;;;;5.50;5.50;;;;;14.79;54.53;101655.00;5120694;27;47223;-81
2022/10/09 10:32:14;;;;;;;;;11.75;10.00;;;;;14.96;54.97;101651.00;5120669;27;45796;-81
2022/10/09 10:34:48;;;;;;;;;10.25;5.50;;;;;15.18;54.38;101648.50;5139238;27;45416;-80
2022/10/09 10:37:13;;;;;;;;;8.00;8.00;;;;;15.36;54.13;101644.38;5103032;27;45467;-81
2022/10/09 10:39:44;;;;;;;;;8.00;6.33;;;;;15.50;53.69;101639.53;5138990;27;45382;-82
2022/10/09 10:42:15;;;;;;;;;8.00;6.25;;;;;15.67;53.40;101636.28;5120378;27;45906;-81
2022/10/09 10:44:59;;;;;;;;;8.00;7.50;;;;;15.87;52.77;101631.22;5120604;27;45348;-82
2022/10/09 10:47:27;;;;;;;;;4.00;4.00;;;;;16.08;52.38;101625.22;5138959;27;45415;-83
2022/10/09 10:49:53;;;;;;;;;5.00;5.00;;;;;16.32;52.57;101620.78;5138740;27;47227;-81
2022/10/09 10:52:31;;;;;;;;;3.25;2.00;;;;;16.52;52.18;101610.34;5135556;27;64755;-81
2022/10/09 10:55:16;;;;;;;;;2.00;2.00;;;;;16.76;50.60;101612.91;5120538;27;45560;-81
2022/10/09 10:58:03;;;;;;;;;3.00;2.00;;;;;17.02;51.28;101598.72;5120355;27;45470;-81
2022/10/09 11:00:32;;;;;;;;;3.00;3.00;;;;;17.30;50.45;101601.00;5120035;27;46649;-81
2022/10/09 11:03:16;;;;;;;;;4.50;3.50;;;;;17.55;49.71;101594.66;5114108;27;45798;-82
2022/10/09 11:06:05;;;;;;;;;3.00;3.00;;;;;17.85;49.03;101589.84;5128581;27;45440;-81
2022/10/09 11:08:42;;;;;;;;;2.00;2.00;;;;;18.31;48.73;101579.78;5114025;27;45441;-80
2022/10/09 11:11:36;;;;;;;;;3.75;3.25;;;;;19.26;50.16;101568.91;5138464;27;45421;-79
2022/10/09 11:14:27;;;;;;;;;4.25;4.00;;;;;22.78;45.16;101572.81;5138032;27;45403;-80
2022/10/09 11:16:59;;;;;;;;;5.00;3.00;;;;;25.29;41.14;101570.69;5033996;28;45493;-80
2022/10/09 11:19:47;;;;;;;;;4.00;3.00;;;;;27.84;38.47;101566.44;5062023;28;45561;-81
2022/10/09 11:22:19;;;;;;;;;2.00;2.00;;;;;29.41;34.03;101573.47;5038484;28;46968;-80
2022/10/09 11:25:09;;;;;;;;;4.00;3.25;;;;;30.83;32.71;101568.38;5054222;28;45420;-80
2022/10/09 11:27:51;;;;;;;;;2.00;0.50;;;;;32.16;30.49;101564.31;5053238;28;45846;-80
2022/10/09 11:30:17;;;;;;;;;5.00;3.75;;;;;33.06;27.27;101560.75;5054175;28;45284;-81
2022/10/09 11:33:04;;;;;;;;;3.50;3.00;;;;;33.87;25.04;101560.63;5053562;28;46203;-82
2022/10/09 11:36:00;;;;;;;;;4.00;3.75;;;;;34.53;24.42;101550.19;5053214;28;45746;-81